Time;durP1;ratioP1;P1;durP2;ratioP2;P2;SDS_P1;SDS_P2;PMS_P1;PMS_P2;Temp;Humidity;BMP_temperature;BMP_pressure;BME280_temperature;BME280_humidity;BME280_pressure;Samples;Min_cycle;Max_cycle;Signal;HPM_P1;HPM_P2
2022/05/29 00:01:00;;;;;;;7.30;3.85;;;;;;;7.92;76.28;98986.31;5035839;28;20574;-78
2022/05/29 00:03:27;;;;;;;7.85;3.60;;;;;;;7.91;76.76;98976.75;5035312;28;20129;-77
2022/05/29 00:05:54;;;;;;;8.40;3.50;;;;;;;7.91;76.35;98983.69;5035495;28;20060;-77
2022/05/29 00:08:29;;;;;;;7.70;3.75;;;;;;;7.92;75.94;98978.50;5035561;28;20088;-78
2022/05/29 00:10:57;;;;;;;8.27;4.10;;;;;;;7.93;76.69;98984.56;5028689;28;20060;-79
2022/05/29 00:13:24;;;;;;;5.57;4.00;;;;;;;7.89;76.58;98969.81;5023184;28;20050;-78
2022/05/29 00:15:53;;;;;;;9.05;4.60;;;;;;;7.92;76.64;98988.91;5027898;28;20057;-77
2022/05/29 00:18:20;;;;;;;9.35;4.95;;;;;;;7.87;76.52;98995.84;5024647;28;20115;-78
2022/05/29 00:20:52;;;;;;;6.85;4.47;;;;;;;7.77;76.81;98983.72;5035539;28;20136;-78
2022/05/29 00:23:19;;;;;;;12.43;4.40;;;;;;;7.86;76.71;99001.03;5035738;28;20053;-77
2022/05/29 00:25:49;;;;;;;5.60;4.40;;;;;;;7.86;76.98;99001.91;5035283;28;20076;-78
2022/05/29 00:28:17;;;;;;;8.85;5.00;;;;;;;7.76;76.74;98992.34;5035173;28;20060;-77
2022/05/29 00:30:45;;;;;;;7.93;4.20;;;;;;;7.77;76.93;98999.31;5035652;28;20107;-77
2022/05/29 00:33:13;;;;;;;5.70;4.07;;;;;;;7.74;77.52;99007.09;5035021;28;20134;-77
2022/05/29 00:35:41;;;;;;;6.93;3.92;;;;;;;7.71;76.80;99007.97;5035462;28;20061;-77
2022/05/29 00:38:13;;;;;;;8.73;4.00;;;;;;;7.68;77.19;99001.88;5035645;28;20061;-78
2022/05/29 00:41:03;;;;;;;7.03;3.70;;;;;;;7.61;77.09;98993.19;5035813;28;20148;-78
2022/05/29 00:43:30;;;;;;;9.40;3.63;;;;;;;7.65;77.38;98999.28;5021875;28;20423;-78
2022/05/29 00:46:00;;;;;;;7.20;3.75;;;;;;;7.67;77.70;99005.34;5057221;28;20049;-78
2022/05/29 00:48:27;;;;;;;7.30;3.55;;;;;;;7.44;77.76;98955.94;5052803;28;20053;-78
2022/05/29 00:50:57;;;;;;;4.75;3.47;;;;;;;7.62;78.24;98997.56;5051888;28;20064;-79
2022/05/29 00:53:25;;;;;;;5.28;3.90;;;;;;;7.71;77.61;99002.75;5034588;28;20060;-77
2022/05/29 00:56:04;;;;;;;7.32;3.55;;;;;;;7.67;77.51;98993.22;5034433;28;20505;-78
2022/05/29 00:58:31;;;;;;;5.25;3.70;;;;;;;7.70;77.77;98990.63;5033245;28;20434;-77
2022/05/29 01:00:58;;;;;;;11.38;3.70;;;;;;;7.80;77.30;99002.75;5034473;28;20046;-78
2022/05/29 01:03:25;;;;;;;6.88;3.42;;;;;;;7.86;77.68;99001.03;5034280;28;20073;-78
2022/05/29 01:05:53;;;;;;;6.20;3.65;;;;;;;7.78;77.07;98975.03;5033766;28;20057;-79
2022/05/29 01:08:28;;;;;;;10.38;3.47;;;;;;;7.90;76.79;98992.38;5033849;28;20053;-78
2022/05/29 01:11:20;;;;;;;6.47;3.45;;;;;;;8.00;76.55;99005.38;5034209;28;20049;-77
2022/05/29 01:13:53;;;;;;;8.57;3.80;;;;;;;8.10;76.66;99005.38;5034494;28;20077;-77
2022/05/29 01:16:52;;;;;;;7.80;3.33;;;;;;;8.06;75.92;99008.84;5034647;28;20064;-78
2022/05/29 01:19:54;;;;;;;7.13;3.58;;;;;;;8.04;76.25;99021.84;5015309;28;20462;-77
2022/05/29 01:22:29;;;;;;;7.85;4.07;;;;;;;8.08;76.14;99018.38;5033795;28;20491;-78
2022/05/29 01:25:18;;;;;;;7.68;3.28;;;;;;;8.09;76.04;99021.88;5034115;28;20049;-78
2022/05/29 01:28:30;;;;;;;6.05;3.30;;;;;;;8.12;75.82;99033.13;5033993;28;20076;-77
2022/05/29 01:31:06;;;;;;;4.43;2.97;;;;;;;8.16;75.33;99018.38;5003528;28;20049;-77
2022/05/29 01:33:34;;;;;;;4.50;3.10;;;;;;;8.46;75.24;99024.47;5033940;28;20064;-77
2022/05/29 01:36:06;;;;;;;6.93;3.35;;;;;;;8.64;74.16;99045.25;5033764;28;20053;-78
2022/05/29 01:38:53;;;;;;;5.85;3.13;;;;;;;8.78;73.54;99034.81;5015702;28;20057;-77
2022/05/29 01:41:40;;;;;;;6.95;2.83;;;;;;;8.82;73.51;99033.94;5033268;28;20064;-77
2022/05/29 01:44:36;;;;;;;6.07;3.00;;;;;;;8.77;73.48;99033.94;5033881;28;20084;-76
2022/05/29 01:47:19;;;;;;;6.20;2.92;;;;;;;8.75;73.60;99043.47;5033589;28;20051;-78
2022/05/29 01:50:03;;;;;;;7.05;3.10;;;;;;;8.90;73.21;99049.53;5032313;28;20104;-77
2022/05/29 01:52:47;;;;;;;3.70;2.88;;;;;;;8.96;72.74;99039.94;5015885;28;20063;-77
2022/05/29 01:55:23;;;;;;;5.25;3.00;;;;;;;9.01;72.46;99040.81;5033534;28;20063;-77
2022/05/29 01:57:54;;;;;;;5.68;2.95;;;;;;;9.14;72.28;99046.84;5033642;28;20085;-78
2022/05/29 02:00:23;;;;;;;3.95;2.65;;;;;;;9.30;72.04;99057.22;5033620;28;20053;-77
2022/05/29 02:02:56;;;;;;;8.38;2.80;;;;;;;9.61;71.02;99060.53;5016435;28;20123;-77
2022/05/29 02:05:27;;;;;;;5.93;3.20;;;;;;;9.97;69.79;99055.97;5033490;28;20099;-79
2022/05/29 02:08:10;;;;;;;7.97;2.75;;;;;;;10.29;68.68;99067.91;5015980;28;20064;-77
2022/05/29 02:10:48;;;;;;;6.75;2.80;;;;;;;10.92;66.87;99065.59;5035225;28;20144;-78
2022/05/29 02:13:21;;;;;;;4.40;2.60;;;;;;;13.27;60.22;99056.75;5037030;28;20060;-77
2022/05/29 02:16:06;;;;;;;3.13;2.60;;;;;;;15.24;54.75;99069.56;5037828;28;20578;-77
2022/05/29 02:18:40;;;;;;;5.78;2.13;;;;;;;14.20;55.78;99062.63;5034116;28;20057;-77
2022/05/29 02:21:15;;;;;;;3.72;2.42;;;;;;;13.34;58.59;99075.03;5032324;28;20191;-77
2022/05/29 02:23:48;;;;;;;8.80;2.70;;;;;;;13.00;58.90;99060.78;5032715;28;20536;-75
2022/05/29 02:26:23;;;;;;;3.58;2.50;;;;;;;13.66;57.49;99059.47;5032935;28;20107;-78
2022/05/29 02:28:56;;;;;;;4.93;2.00;;;;;;;16.56;50.68;99055.84;5033703;28;20059;-78
2022/05/29 02:31:41;;;;;;;5.35;1.92;;;;;;;18.29;46.60;99052.97;5035396;28;20478;-78
2022/05/29 02:34:18;;;;;;;3.28;1.98;;;;;;;17.19;47.75;99072.13;5032865;28;20049;-77
2022/05/29 02:36:53;;;;;;;5.18;2.10;;;;;;;15.40;51.60;99072.63;5032932;28;20140;-78
2022/05/29 02:39:26;;;;;;;6.55;2.03;;;;;;;14.29;54.72;99071.13;5032745;28;20048;-77
2022/05/29 02:42:26;;;;;;;5.72;1.73;;;;;;;16.75;49.83;99073.66;5033010;28;20058;-78
2022/05/29 02:45:27;;;;;;;5.00;2.10;;;;;;;18.00;46.69;99068.22;5032691;28;20065;-77
2022/05/29 02:48:16;;;;;;;4.60;2.00;;;;;;;17.19;48.21;99077.41;5032335;28;20430;-76
2022/05/29 02:51:09;;;;;;;3.72;2.13;;;;;;;20.75;41.43;99078.88;5032395;28;20054;-77
2022/05/29 02:53:42;;;;;;;4.28;2.08;;;;;;;23.06;35.68;99068.84;5032608;28;20057;-77
2022/05/29 02:56:10;;;;;;;5.78;2.45;;;;;;;24.17;33.12;99077.91;5032923;28;20057;-77
2022/05/29 02:58:39;;;;;;;3.00;2.00;;;;;;;24.66;32.44;99072.03;5032416;28;20053;-77
2022/05/29 03:01:28;;;;;;;4.20;1.95;;;;;;;25.01;33.08;99064.28;5032520;28;20461;-78
2022/05/29 03:03:55;;;;;;;4.93;1.80;;;;;;;26.49;29.36;99076.00;5033083;28;20136;-77
2022/05/29 03:06:53;;;;;;;5.75;1.95;;;;;;;27.64;28.55;99084.22;5032415;28;20053;-77
2022/05/29 03:09:38;;;;;;;3.67;1.60;;;;;;;27.84;27.80;99080.81;5032521;28;20112;-77
2022/05/29 03:12:14;;;;;;;2.90;1.80;;;;;;;28.34;26.23;99072.31;5014943;28;20080;-78
2022/05/29 03:14:51;;;;;;;6.60;1.80;;;;;;;29.00;25.45;99093.66;5032372;28;20396;-78
2022/05/29 03:17:34;;;;;;;1.98;1.50;;;;;;;27.95;26.28;99086.19;5032595;28;20123;-77
2022/05/29 03:20:37;;;;;;;3.50;1.40;;;;;;;27.60;27.17;99093.47;5033019;28;20049;-77
2022/05/29 03:23:31;;;;;;;2.33;1.60;;;;;;;29.55;25.52;99106.88;5035531;28;20050;-77
2022/05/29 03:26:05;;;;;;;3.30;1.60;;;;;;;30.14;23.50;99090.00;5036548;28;20045;-78
2022/05/29 03:28:41;;;;;;;2.00;1.40;;;;;;;28.10;25.42;99097.50;5036358;28;20057;-77
2022/05/29 03:31:14;;;;;;;3.40;1.30;;;;;;;24.24;30.54;99114.78;5036395;28;20054;-78
2022/05/29 03:33:41;;;;;;;1.88;1.42;;;;;;;22.50;33.40;99119.13;5018598;28;20085;-77
2022/05/29 03:36:15;;;;;;;6.10;1.20;;;;;;;20.84;36.21;99112.94;5035722;28;20053;-78
2022/05/29 03:38:45;;;;;;;8.80;1.38;;;;;;;19.51;38.74;99105.97;5036293;28;20068;-79
2022/05/29 03:41:13;;;;;;;;;;;;;;;18.18;41.21;99118.63;5037075;28;20061;-77
2022/05/29 03:43:42;;;;;;;4.20;1.10;;;;;;;17.58;42.92;99107.69;5035556;28;20395;-77
2022/05/29 03:46:16;;;;;;;3.53;1.30;;;;;;;17.15;44.28;99125.06;5035690;28;20065;-77
2022/05/29 03:48:43;;;;;;;4.85;1.45;;;;;;;16.74;45.33;99129.97;5035220;28;20072;-78
2022/05/29 03:51:10;;;;;;;3.78;1.67;;;;;;;16.11;46.65;99130.22;5034631;28;20145;-79
2022/05/29 03:53:37;;;;;;;3.80;1.33;;;;;;;15.48;48.60;99147.81;5035809;28;20049;-77
2022/05/29 03:56:04;;;;;;;2.33;1.15;;;;;;;15.22;49.56;99138.00;5035903;28;20083;-77
2022/05/29 03:58:31;;;;;;;1.65;1.38;;;;;;;14.78;50.56;99139.16;5018344;28;20148;-78
2022/05/29 04:00:58;;;;;;;1.38;1.27;;;;;;;14.37;51.24;99117.34;5034170;28;20427;-77
2022/05/29 04:03:25;;;;;;;5.15;2.10;;;;;;;14.25;52.42;99152.66;5035702;28;20111;-78
2022/05/29 04:05:54;;;;;;;2.38;1.20;;;;;;;13.85;53.88;99145.66;5035833;28;20526;-77
2022/05/29 04:13:55;;;;;;;4.10;1.65;;;;;;;13.30;55.27;99164.25;5035887;28;20049;-78
2022/05/29 04:16:22;;;;;;;1.45;1.10;;;;;;;13.28;55.22;99152.91;5032503;28;20070;-78
2022/05/29 04:18:49;;;;;;;2.17;1.50;;;;;;;13.24;55.73;99180.06;5005599;28;20053;-79
2022/05/29 04:21:16;;;;;;;3.38;1.45;;;;;;;13.10;56.16;99171.59;5037742;28;20061;-77
2022/05/29 04:23:43;;;;;;;2.63;1.40;;;;;;;13.07;56.32;99169.00;5033422;28;20068;-78
2022/05/29 04:26:14;;;;;;;3.35;1.50;;;;;;;12.73;56.98;99097.97;5035778;28;20046;-78
2022/05/29 04:28:42;;;;;;;4.35;1.75;;;;;;;13.07;57.16;99166.38;5015349;28;20046;-78
2022/05/29 04:31:11;;;;;;;3.13;1.70;;;;;;;13.31;57.37;99168.63;5002553;28;20539;-78
2022/05/29 04:33:38;;;;;;;2.00;1.90;;;;;;;13.32;57.50;99182.59;5026470;28;20054;-78
2022/05/29 04:36:05;;;;;;;2.47;1.92;;;;;;;13.38;58.02;99177.22;5024360;28;20107;-77
2022/05/29 04:38:32;;;;;;;4.03;2.45;;;;;;;13.58;57.70;99179.47;5025566;28;20592;-78
2022/05/29 04:41:05;;;;;;;3.30;2.00;;;;;;;13.67;57.12;99173.16;5024088;28;20050;-79
2022/05/29 04:43:34;;;;;;;5.72;1.70;;;;;;;13.79;56.54;99174.66;5013919;28;20045;-79
2022/05/29 04:46:02;;;;;;;3.80;2.35;;;;;;;13.78;57.08;99184.31;5011620;28;20054;-79
2022/05/29 04:53:58;;;;;;;2.15;1.92;;;;;;;12.56;58.23;99121.84;4947069;29;20612;-78
2022/05/29 04:57:57;;;;;;;3.38;2.42;;;;;;;12.26;59.15;99103.97;4930083;29;20050;-79
2022/05/29 05:02:02;;;;;;;3.55;2.40;;;;;;;12.24;60.03;99137.19;4875145;29;20057;-80
2022/05/29 05:05:57;;;;;;;4.78;2.28;;;;;;;12.60;60.79;99178.53;4802482;29;20082;-77
2022/05/29 05:08:39;;;;;;;2.40;2.20;;;;;;;13.01;60.67;99214.53;4930933;29;20055;-77
2022/05/29 05:11:08;;;;;;;3.72;2.15;;;;;;;13.26;59.39;99175.66;4942783;28;20055;-79
2022/05/29 05:13:34;;;;;;;2.60;1.80;;;;;;;13.61;58.58;99204.78;4949838;29;20059;-78
2022/05/29 05:16:04;;;;;;;3.42;1.65;;;;;;;13.62;59.37;99196.03;4916147;29;20110;-78
2022/05/29 05:18:32;;;;;;;2.50;1.73;;;;;;;13.60;59.50;99210.94;4958519;28;20432;-77
2022/05/29 05:20:59;;;;;;;1.85;1.70;;;;;;;14.24;57.56;99216.59;5000684;28;20108;-77
2022/05/29 05:23:27;;;;;;;3.03;1.83;;;;;;;14.92;56.45;99205.41;4997610;28;20050;-80
2022/05/29 05:25:54;;;;;;;3.45;1.63;;;;;;;15.76;54.14;99211.09;4999966;28;20058;-78
2022/05/29 05:28:22;;;;;;;4.95;2.17;;;;;;;16.58;52.24;99216.59;4977695;28;20054;-79
2022/05/29 05:30:51;;;;;;;2.30;2.10;;;;;;;16.93;50.59;99223.44;4995923;28;20116;-79
2022/05/29 05:33:19;;;;;;;2.63;1.83;;;;;;;16.83;50.61;99185.06;4996227;28;20278;-79
2022/05/29 05:35:46;;;;;;;3.55;1.67;;;;;;;16.89;50.62;99218.31;4988196;28;20435;-78
2022/05/29 05:38:14;;;;;;;2.42;1.92;;;;;;;16.84;50.55;99218.44;4977065;28;20136;-78
2022/05/29 05:40:42;;;;;;;1.83;1.73;;;;;;;17.36;49.71;99229.91;4992873;28;20065;-78
2022/05/29 05:43:10;;;;;;;2.53;1.90;;;;;;;17.55;49.29;99214.28;5000296;28;20108;-77
2022/05/29 05:45:41;;;;;;;3.90;1.80;;;;;;;17.28;49.16;99209.97;4996756;28;20513;-78
2022/05/29 05:48:08;;;;;;;3.22;1.73;;;;;;;17.81;47.76;99212.50;5000029;28;20077;-78
2022/05/29 05:50:39;;;;;;;4.05;1.80;;;;;;;18.14;46.54;99196.31;4982165;28;20487;-78
2022/05/29 05:53:07;;;;;;;2.38;1.60;;;;;;;18.29;46.42;99210.72;4980520;28;20054;-77
2022/05/29 05:55:36;;;;;;;2.40;2.05;;;;;;;17.92;46.51;99164.56;4996738;28;20101;-78
2022/05/29 05:58:03;;;;;;;4.22;2.47;;;;;;;18.07;47.64;99230.06;4998029;28;20048;-77
2022/05/29 06:00:30;;;;;;;2.28;1.70;;;;;;;17.55;48.58;99237.16;4998216;28;20515;-77
2022/05/29 06:02:57;;;;;;;5.10;2.10;;;;;;;17.55;49.00;99227.50;5007613;28;20073;-77
2022/05/29 06:05:26;;;;;;;4.20;1.85;;;;;;;17.48;48.48;99191.63;4994919;28;20408;-79
2022/05/29 06:07:53;;;;;;;2.38;1.65;;;;;;;18.03;47.87;99238.16;4995136;28;20054;-77
2022/05/29 06:10:20;;;;;;;2.20;2.00;;;;;;;18.70;46.48;99229.41;5007615;28;20145;-78
2022/05/29 06:12:47;;;;;;;8.75;1.90;;;;;;;18.40;45.65;99219.09;5006375;28;20052;-78
2022/05/29 06:15:14;;;;;;;2.95;1.73;;;;;;;18.23;46.08;99232.09;5010539;28;20065;-78
2022/05/29 06:17:41;;;;;;;7.00;1.88;;;;;;;17.77;46.96;99243.44;5011651;28;20511;-79
2022/05/29 06:20:09;;;;;;;2.80;1.60;;;;;;;17.63;46.96;99245.69;5026555;28;20046;-79
2022/05/29 06:22:38;;;;;;;4.38;1.50;;;;;;;17.86;46.40;99247.53;5024500;28;20050;-78
2022/05/29 06:25:05;;;;;;;4.15;1.50;;;;;;;18.03;45.55;99251.38;5030096;28;20083;-79
2022/05/29 06:27:41;;;;;;;12.35;1.77;;;;;;;17.68;45.92;99242.88;5029257;28;20049;-79
2022/05/29 06:30:11;;;;;;;2.15;1.20;;;;;;;17.84;45.56;99245.88;5031590;28;20056;-83
2022/05/29 06:32:38;;;;;;;1.60;1.33;;;;;;;17.63;45.75;99245.69;4998492;28;20523;-80
2022/05/29 06:35:08;;;;;;;4.13;1.60;;;;;;;17.50;46.04;99236.47;5012570;28;20061;-79
2022/05/29 06:37:38;;;;;;;2.83;1.38;;;;;;;17.78;45.36;99263.63;4993026;28;20539;-78
2022/05/29 06:40:07;;;;;;;2.40;1.55;;;;;;;17.17;46.64;99261.31;5015056;28;20063;-80
2022/05/29 06:42:35;;;;;;;5.10;2.67;;;;;;;16.79;47.79;99238.78;5014640;28;20037;-80
2022/05/29 06:45:07;;;;;;;10.18;3.85;;;;;;;17.44;46.97;99276.28;5010959;28;20058;-79
2022/05/29 06:47:36;;;;;;;4.00;1.60;;;;;;;17.56;45.38;99246.81;5013161;28;20062;-79
2022/05/29 06:50:03;;;;;;;6.65;2.10;;;;;;;17.30;46.07;99277.63;5032723;28;20053;-79
2022/05/29 06:52:34;;;;;;;2.65;1.48;;;;;;;16.61;47.17;99276.31;5032590;28;20140;-79
2022/05/29 06:55:02;;;;;;;7.88;1.75;;;;;;;16.36;47.29;99290.19;5033318;28;20081;-80
2022/05/29 06:57:44;;;;;;;1.65;1.10;;;;;;;16.38;47.41;99289.25;5031916;28;20054;-79
2022/05/29 07:08:47;;;;;;;2.97;1.58;;;;;;;17.46;44.67;99296.44;5036738;28;20065;-77
2022/05/29 07:11:24;;;;;;;4.00;1.20;;;;;;;17.62;45.13;99288.88;5030662;28;20157;-78
2022/05/29 07:13:51;;;;;;;3.33;1.23;;;;;;;17.60;44.20;99301.25;4997125;28;20058;-80
2022/05/29 07:16:18;;;;;;;3.88;1.00;;;;;;;16.99;44.80;99305.00;5026362;28;20061;-78
2022/05/29 07:18:50;;;;;;;1.63;1.05;;;;;;;16.52;45.57;99280.94;5017917;28;20065;-78
2022/05/29 07:21:21;;;;;;;1.58;0.95;;;;;;;16.64;45.54;99294.66;5038537;28;20084;-79
2022/05/29 07:23:49;;;;;;;0.90;0.90;;;;;;;16.98;45.48;99273.41;5037290;28;20057;-78
2022/05/29 07:26:17;;;;;;;2.70;1.33;;;;;;;17.41;43.94;99303.66;5038093;28;20180;-80
2022/05/29 07:28:45;;;;;;;5.50;1.65;;;;;;;17.37;44.24;99302.88;4999952;28;20076;-76
2022/05/29 07:31:12;;;;;;;1.92;1.38;;;;;;;17.32;43.92;99299.56;5012618;28;20064;-78
2022/05/29 07:33:40;;;;;;;5.28;1.73;;;;;;;17.51;43.80;99296.28;5020980;28;20054;-79
2022/05/29 07:36:10;;;;;;;1.45;1.20;;;;;;;17.45;43.83;99304.44;5029915;28;20133;-79
2022/05/29 07:38:40;;;;;;;2.58;1.15;;;;;;;17.51;44.46;99325.31;4998527;28;20058;-77
2022/05/29 07:43:55;;;;;;;1.30;1.02;;;;;;;17.39;43.60;99327.47;5000648;28;20054;-79
2022/05/29 07:46:22;;;;;;;2.30;1.20;;;;;;;16.93;44.11;99318.41;4998582;28;20128;-78
2022/05/29 07:48:51;;;;;;;1.55;1.20;;;;;;;16.64;45.26;99340.34;5015780;28;20084;-79
2022/05/29 07:51:20;;;;;;;4.75;2.03;;;;;;;16.37;46.02;99350.78;5017010;28;20050;-80
2022/05/29 07:53:48;;;;;;;4.13;1.95;;;;;;;16.02;46.77;99327.19;5017153;28;20138;-84
2022/05/29 07:56:16;;;;;;;3.75;1.58;;;;;;;15.81;47.26;99347.94;4999839;28;20058;-78
2022/05/29 07:58:51;;;;;;;6.20;2.08;;;;;;;15.77;47.86;99352.41;5017237;28;20053;-78
2022/05/29 08:01:21;;;;;;;5.15;3.75;;;;;;;16.24;47.75;99359.94;5010958;28;20062;-79
2022/05/29 08:03:49;;;;;;;3.05;1.90;;;;;;;16.64;46.62;99353.53;5009100;28;20061;-79
2022/05/29 08:06:17;;;;;;;5.82;2.30;;;;;;;16.94;44.91;99359.69;5008746;28;20050;-81
2022/05/29 08:08:46;;;;;;;7.03;3.30;;;;;;;17.02;44.74;99353.31;5015037;28;20061;-79
2022/05/29 08:11:17;;;;;;;10.20;4.80;;;;;;;16.98;44.46;99360.47;4998118;28;20049;-80
2022/05/29 08:13:46;;;;;;;4.07;2.50;;;;;;;16.80;44.88;99375.06;5015293;28;20096;-80
2022/05/29 08:16:16;;;;;;;2.20;1.60;;;;;;;16.35;45.17;99330.66;5015026;28;20504;-79
2022/05/29 08:18:47;;;;;;;3.50;1.77;;;;;;;16.63;44.40;99365.00;5015203;28;20088;-79
2022/05/29 08:21:15;;;;;;;1.77;1.30;;;;;;;17.06;44.30;99355.81;4998212;28;20054;-79
2022/05/29 08:30:37;;;;;;;2.22;1.15;;;;;;;17.18;43.45;99370.38;4997549;28;20052;-81
2022/05/29 08:32:30;;;;;;;1.98;1.60;;;;;;;17.50;41.79;99342.09;5015206;28;20062;-78
2022/05/29 08:34:57;;;;;;;2.75;1.60;;;;;;;17.69;42.19;99374.03;5014942;28;20148;-79
2022/05/29 08:37:24;;;;;;;3.55;2.50;;;;;;;18.08;41.46;99384.19;5014992;28;20083;-79
2022/05/29 08:39:53;;;;;;;2.13;1.60;;;;;;;18.13;41.04;99375.19;4981550;28;20108;-79
2022/05/29 08:42:27;;;;;;;4.68;1.58;;;;;;;18.11;40.94;99376.13;5014931;28;20049;-78
2022/05/29 08:44:54;;;;;;;3.67;1.40;;;;;;;17.89;41.30;99366.31;5014858;28;20145;-79
2022/05/29 08:47:28;;;;;;;3.67;2.75;;;;;;;17.67;41.97;99384.63;5015367;28;20058;-80
2022/05/29 08:50:03;;;;;;;3.22;1.90;;;;;;;17.31;42.57;99382.28;5015151;28;20050;-79
2022/05/29 08:52:48;;;;;;;6.00;1.90;;;;;;;17.10;43.51;99393.50;5014902;28;20420;-78
2022/05/29 08:55:25;;;;;;;3.55;1.67;;;;;;;17.20;43.93;99384.41;4996601;28;20089;-81
2022/05/29 08:58:03;;;;;;;3.72;2.30;;;;;;;17.18;44.12;99381.78;4997467;28;20077;-80
2022/05/29 09:01:00;;;;;;;7.40;4.95;;;;;;;17.04;44.31;99386.66;5014508;28;20053;-79
2022/05/29 09:03:51;;;;;;;4.40;2.67;;;;;;;16.91;44.09;99380.03;5014106;28;20412;-78
2022/05/29 09:06:38;;;;;;;5.47;2.70;;;;;;;17.06;44.62;99378.69;5014684;28;20134;-79
2022/05/29 09:09:24;;;;;;;6.43;1.95;;;;;;;17.15;43.80;99370.50;5014801;28;20053;-80
2022/05/29 09:11:58;;;;;;;7.57;4.05;;;;;;;17.38;42.29;99362.72;5015805;28;20049;-79
2022/05/29 09:14:52;;;;;;;3.38;2.10;;;;;;;17.60;41.67;99368.13;5018121;28;20154;-78
2022/05/29 09:17:34;;;;;;;4.57;2.60;;;;;;;17.60;41.03;99378.69;4977294;28;20050;-79
2022/05/29 09:20:06;;;;;;;1.52;1.30;;;;;;;17.45;41.12;99376.56;4976776;28;20058;-80
2022/05/29 09:22:39;;;;;;;2.47;1.23;;;;;;;17.36;42.45;99398.00;4995037;28;20141;-81
2022/05/29 09:25:28;;;;;;;2.53;1.40;;;;;;;17.37;42.45;99399.72;4977273;28;20493;-81
2022/05/29 09:28:07;;;;;;;2.83;1.77;;;;;;;17.48;41.32;99373.81;4994198;28;20057;-80
2022/05/29 09:30:38;;;;;;;1.20;1.10;;;;;;;17.45;41.54;99367.78;4961280;28;20432;-81
2022/05/29 09:33:27;;;;;;;4.18;1.70;;;;;;;17.67;41.35;99391.72;4979980;28;20061;-78
2022/05/29 09:36:26;;;;;;;3.47;1.40;;;;;;;17.63;42.46;99387.44;4976763;28;20050;-80
2022/05/29 09:39:05;;;;;;;3.33;1.50;;;;;;;17.82;43.02;99409.72;4976636;28;20077;-78
2022/05/29 09:41:45;;;;;;;2.13;1.20;;;;;;;17.40;42.87;99308.09;4994395;28;20050;-79
2022/05/29 09:44:15;;;;;;;2.40;1.67;;;;;;;17.91;41.88;99397.97;4994394;28;20145;-80
2022/05/29 09:46:46;;;;;;;3.10;1.30;;;;;;;17.49;42.48;99417.81;4976555;28;20050;-78
2022/05/29 09:49:45;;;;;;;2.38;1.40;;;;;;;17.10;42.96;99399.66;4994301;28;20129;-78
2022/05/29 09:52:23;;;;;;;;;;;;;;;16.83;44.06;99425.09;4994752;28;20056;-78
2022/05/29 09:54:55;;;;;;;5.00;1.90;;;;;;;16.78;46.49;99435.75;4961249;28;19992;-79
2022/05/29 09:57:29;;;;;;;5.28;2.92;;;;;;;16.57;47.26;99439.84;4994061;28;20512;-80
2022/05/29 10:00:06;;;;;;;7.38;4.15;;;;;;;16.30;47.64;99433.53;4994176;28;20078;-80
2022/05/29 10:02:41;;;;;;;2.65;1.88;;;;;;;16.28;48.35;99451.19;4994337;28;20528;-80
2022/05/29 10:05:24;;;;;;;5.32;1.80;;;;;;;16.56;48.48;99447.78;4977441;28;20085;-79
2022/05/29 10:07:59;;;;;;;3.25;2.50;;;;;;;17.27;46.18;99435.22;4976747;28;20061;-81
2022/05/29 10:10:29;;;;;;;3.15;2.63;;;;;;;17.82;43.87;99438.78;4994650;28;20085;-79
2022/05/29 10:13:00;;;;;;;3.30;1.85;;;;;;;17.83;43.90;99411.44;4993896;28;20061;-79
2022/05/29 10:15:26;;;;;;;2.27;1.50;;;;;;;17.87;43.75;99428.91;4960699;28;20058;-79
2022/05/29 10:18:31;;;;;;;2.22;1.20;;;;;;;17.82;43.78;99438.78;4977001;28;20062;-80
2022/05/29 10:21:15;;;;;;;1.70;1.20;;;;;;;17.39;44.76;99437.47;4993854;28;20401;-80
2022/05/29 10:23:50;;;;;;;1.17;1.02;;;;;;;17.27;44.95;99451.06;4977006;28;20050;-79
2022/05/29 10:26:22;;;;;;;3.58;2.80;;;;;;;17.94;43.71;99438.38;4994141;28;20058;-81
2022/05/29 10:28:51;;;;;;;4.05;2.70;;;;;;;18.61;42.90;99436.94;4993540;28;20527;-79
2022/05/29 10:31:35;;;;;;;1.80;1.60;;;;;;;18.71;42.45;99435.66;4993568;28;20062;-78
2022/05/29 10:34:08;;;;;;;1.45;1.30;;;;;;;18.29;43.01;99435.44;4993168;28;20062;-80
2022/05/29 10:36:39;;;;;;;3.15;1.85;;;;;;;18.18;42.91;99433.19;4993798;28;20065;-80
2022/05/29 10:39:22;;;;;;;5.53;2.10;;;;;;;18.30;42.61;99435.38;4976220;28;20061;-78
2022/05/29 10:41:53;;;;;;;3.25;2.40;;;;;;;18.67;41.35;99442.00;4960620;28;20339;-79
2022/05/29 10:44:41;;;;;;;2.75;1.60;;;;;;;18.74;41.71;99429.41;4976080;28;20054;-80
2022/05/29 10:47:16;;;;;;;4.22;1.60;;;;;;;18.66;41.51;99434.13;4994126;28;20488;-78
2022/05/29 10:49:50;;;;;;;4.05;1.90;;;;;;;18.20;42.46;99437.47;4993540;28;20050;-78
2022/05/29 10:53:18;;;;;;;2.40;1.67;;;;;;;17.66;44.15;99446.31;4976263;28;20050;-78
2022/05/29 10:56:12;;;;;;;2.72;2.05;;;;;;;17.91;44.80;99446.38;4993510;28;20141;-78
2022/05/29 10:59:22;;;;;;;2.53;2.00;;;;;;;18.07;44.42;99449.41;4994029;28;20047;-80
2022/05/29 11:05:13;;;;;;;5.80;3.85;;;;;;;17.83;43.63;99448.41;4978498;28;20464;-77
2022/05/29 11:08:00;;;;;;;8.50;4.25;;;;;;;17.64;43.15;99440.22;4976025;28;20057;-78
2022/05/29 11:10:53;;;;;;;10.50;6.53;;;;;;;17.59;43.66;99457.97;4993422;28;20405;-78
2022/05/29 11:13:37;;;;;;;7.32;3.83;;;;;;;17.70;43.30;99460.25;4993521;28;20504;-79
2022/05/29 11:16:42;;;;;;;2.03;1.88;;;;;;;17.81;43.04;99461.66;5003710;28;20151;-78
2022/05/29 11:19:32;;;;;;;7.32;3.55;;;;;;;17.99;41.87;99456.72;5013407;28;20053;-79
2022/05/29 11:22:07;;;;;;;6.72;1.83;;;;;;;17.92;40.77;99458.69;4997088;28;20050;-79
2022/05/29 11:24:54;;;;;;;1.98;1.42;;;;;;;17.70;40.80;99449.69;5013353;28;20064;-78
2022/05/29 11:27:43;;;;;;;2.35;1.00;;;;;;;17.77;40.53;99461.81;4996751;28;20079;-78
2022/05/29 11:30:30;;;;;;;3.30;1.70;;;;;;;17.67;40.11;99463.88;5013029;28;20054;-78
2022/05/29 11:33:18;;;;;;;2.13;1.38;;;;;;;17.52;39.63;99472.28;4996114;28;20148;-80
2022/05/29 11:36:08;;;;;;;3.78;1.40;;;;;;;17.51;39.83;99465.25;5013535;28;20053;-80
2022/05/29 11:39:11;;;;;;;2.08;1.27;;;;;;;17.69;39.42;99477.03;5009491;28;20122;-78
2022/05/29 11:42:13;;;;;;;5.80;1.40;;;;;;;17.50;38.45;99472.31;5023912;28;20045;-79
2022/05/29 11:45:04;;;;;;;2.63;2.08;;;;;;;17.68;37.85;99457.69;4996382;28;20086;-79
2022/05/29 11:54:03;;;;;;;4.88;1.25;;;;;;;17.90;37.19;99457.88;4998338;28;20054;-78
2022/05/29 11:56:40;;;;;;;3.65;1.70;;;;;;;17.75;38.21;99472.44;5016172;28;20104;-78
2022/05/29 11:59:26;;;;;;;3.25;1.27;;;;;;;17.66;38.54;99467.44;5015631;28;20053;-79
2022/05/29 12:02:04;;;;;;;2.47;1.20;;;;;;;17.60;37.81;99470.28;5015817;28;20053;-79
2022/05/29 12:04:44;;;;;;;2.83;1.80;;;;;;;17.63;37.76;99479.88;5015866;28;20053;-77
2022/05/29 12:07:23;;;;;;;4.00;1.50;;;;;;;17.71;37.46;99467.28;4998904;28;20104;-80
2022/05/29 12:10:00;;;;;;;4.85;1.40;;;;;;;17.80;37.01;99473.13;4981921;28;20455;-80
2022/05/29 12:12:38;;;;;;;2.40;1.27;;;;;;;17.67;37.74;99487.66;5015812;28;20478;-79
2022/05/29 12:15:20;;;;;;;7.05;3.58;;;;;;;17.77;37.88;99475.03;5015672;28;20518;-80
2022/05/29 12:17:58;;;;;;;2.80;1.95;;;;;;;18.11;37.63;99490.66;4997710;28;20064;-78
2022/05/29 12:20:49;;;;;;;9.73;3.58;;;;;;;18.18;37.32;99484.25;5016376;28;20504;-77
2022/05/29 12:23:27;;;;;;;6.00;2.42;;;;;;;18.61;36.51;99490.69;5015613;28;20046;-81
2022/05/29 12:26:06;;;;;;;8.52;2.33;;;;;;;18.86;36.82;99481.91;5015804;28;20061;-80
2022/05/29 12:29:05;;;;;;;5.07;1.98;;;;;;;18.51;37.60;99494.56;4998679;28;20053;-77
2022/05/29 12:31:46;;;;;;;9.02;2.28;;;;;;;18.15;38.13;99508.13;5024908;28;20054;-79
2022/05/29 12:34:21;;;;;;;1.90;1.10;;;;;;;17.95;38.49;99526.44;5023246;28;20100;-78
2022/05/29 12:37:16;;;;;;;1.73;1.17;;;;;;;17.85;37.82;99506.50;5002380;28;20053;-82
2022/05/29 12:40:04;;;;;;;4.57;1.65;;;;;;;17.83;38.45;99506.53;4981227;28;20108;-77
2022/05/29 12:42:42;;;;;;;4.18;1.52;;;;;;;17.70;38.05;99499.88;4996717;28;20153;-78
2022/05/29 12:45:29;;;;;;;6.38;2.35;;;;;;;18.01;38.49;99511.25;5013402;28;20092;-79
2022/05/29 12:48:16;;;;;;;6.45;3.70;;;;;;;18.07;37.71;99525.16;5014459;28;20081;-79
2022/05/29 12:51:04;;;;;;;5.20;2.55;;;;;;;18.12;37.65;99528.53;5020282;28;20049;-78
2022/05/29 12:54:11;;;;;;;4.80;2.70;;;;;;;18.13;37.07;99515.28;5032054;28;20061;-78
2022/05/29 12:57:03;;;;;;;4.55;1.95;;;;;;;18.25;36.70;99521.91;5030751;28;20065;-79